createdAt,value
2023-04-01T00:01:17.782Z,14.70
2023-04-01T00:03:45.543Z,17.63
2023-04-01T00:06:18.107Z,24.02
2023-04-01T00:08:45.850Z,14.95
2023-04-01T00:11:13.570Z,25.20
2023-04-01T00:13:40.909Z,17.23
2023-04-01T00:16:19.723Z,27.20
2023-04-01T00:18:51.199Z,23.13
2023-04-01T00:21:18.164Z,19.70
2023-04-01T00:23:44.992Z,18.85
2023-04-01T00:26:13.455Z,20.55
2023-04-01T00:28:41.339Z,18.48
2023-04-01T00:31:09.733Z,16.60
2023-04-01T00:33:36.874Z,28.35
2023-04-01T00:36:14.052Z,22.77
2023-04-01T00:38:42.782Z,23.02
2023-04-01T00:41:15.880Z,15.07
2023-04-01T00:43:44.098Z,15.55
2023-04-01T00:46:10.904Z,13.45
2023-04-01T00:48:40.935Z,26.00
2023-04-01T00:51:29.575Z,23.45
2023-04-01T00:53:59.505Z,8.88
2023-04-01T00:56:31.798Z,15.15
2023-04-01T00:59:12.834Z,17.60
2023-04-01T01:01:39.693Z,20.80
2023-04-01T01:04:06.792Z,13.15
2023-04-01T01:07:21.540Z,20.50
2023-04-01T01:10:19.570Z,16.73
2023-04-01T01:12:56.392Z,18.70
2023-04-01T01:15:38.721Z,24.00
2023-04-01T01:18:11.226Z,20.98
2023-04-01T01:20:40.571Z,20.30
2023-04-01T01:23:45.117Z,19.05
2023-04-01T01:26:25.657Z,20.48
2023-04-01T01:29:27.200Z,16.60
2023-04-01T01:32:09.707Z,15.18
2023-04-01T01:34:54.142Z,19.27
2023-04-01T01:37:26.757Z,24.73
2023-04-01T01:39:59.114Z,22.20
2023-04-01T01:42:28.315Z,17.33
2023-04-01T01:44:57.906Z,24.92
2023-04-01T01:47:26.466Z,9.50
2023-04-01T01:49:55.456Z,23.80
2023-04-01T01:52:24.130Z,12.80
2023-04-01T01:54:56.651Z,14.55
2023-04-01T01:57:45.757Z,18.80
2023-04-01T02:00:16.581Z,11.05
2023-04-01T02:02:45.909Z,12.23
2023-04-01T02:05:18.147Z,18.80
2023-04-01T02:07:50.935Z,18.25
2023-04-01T02:10:20.608Z,12.52
2023-04-01T02:12:49.092Z,15.80
2023-04-01T02:15:18.099Z,14.10
2023-04-01T02:17:47.696Z,15.27
2023-04-01T02:20:19.989Z,13.93
2023-04-01T02:22:51.343Z,19.70
2023-04-01T02:27:50.963Z,15.52
2023-04-01T02:30:18.585Z,13.30
2023-04-01T02:32:47.550Z,10.93
2023-04-01T02:35:17.281Z,14.15
2023-04-01T02:37:45.542Z,12.30
2023-04-01T02:40:15.034Z,4.55
2023-04-01T02:42:41.861Z,16.88
2023-04-01T02:45:09.828Z,13.57
2023-04-01T02:47:36.672Z,8.02
2023-04-01T02:50:04.006Z,12.90
2023-04-01T02:52:31.406Z,20.35
2023-04-01T02:54:58.786Z,16.35
2023-04-01T02:57:26.371Z,9.88
2023-04-01T02:59:53.123Z,16.45
2023-04-01T03:02:20.083Z,20.02
2023-04-01T03:04:46.912Z,16.95
2023-04-01T03:07:14.009Z,10.10
2023-04-01T03:09:41.122Z,12.20
2023-04-01T03:12:08.025Z,12.30
2023-04-01T03:14:34.738Z,12.48
2023-04-01T03:17:01.955Z,11.15
2023-04-01T03:19:28.762Z,13.55
2023-04-01T03:21:55.572Z,14.70
2023-04-01T03:24:22.376Z,14.00
2023-04-01T03:26:49.591Z,10.98
2023-04-01T03:29:17.061Z,11.07
2023-04-01T03:31:44.260Z,14.55
2023-04-01T03:34:11.505Z,15.32
2023-04-01T03:36:38.567Z,14.18
2023-04-01T03:39:06.228Z,10.57
2023-04-01T03:41:33.243Z,15.50
2023-04-01T03:44:00.089Z,14.75
2023-04-01T03:46:26.990Z,17.10
2023-04-01T03:48:53.733Z,15.65
2023-04-01T03:51:20.552Z,11.63
2023-04-01T03:53:47.660Z,14.80
2023-04-01T03:56:14.430Z,11.02
2023-04-01T03:58:41.142Z,9.82
2023-04-01T04:01:22.075Z,11.65
2023-04-01T04:03:50.744Z,7.57
2023-04-01T04:06:19.859Z,8.85
2023-04-01T04:08:46.899Z,13.00
2023-04-01T04:11:14.344Z,12.38
2023-04-01T04:13:41.900Z,2.92
2023-04-01T04:16:09.669Z,10.27
2023-04-01T04:18:37.284Z,9.27
2023-04-01T04:21:05.160Z,2.80
2023-04-01T04:23:34.525Z,8.77
2023-04-01T04:26:07.029Z,8.18
2023-04-01T04:28:34.602Z,9.93
2023-04-01T04:31:01.914Z,10.40
2023-04-01T04:33:28.742Z,7.63
2023-04-01T04:36:00.195Z,9.60
2023-04-01T04:38:27.758Z,9.18
2023-04-01T04:40:55.367Z,11.70
2023-04-01T04:43:22.547Z,13.65
2023-04-01T04:45:49.262Z,11.32
2023-04-01T04:48:19.776Z,13.95
2023-04-01T04:50:51.421Z,11.40
2023-04-01T04:55:47.286Z,11.05
2023-04-01T04:58:14.238Z,11.20
2023-04-01T05:00:41.158Z,16.88
2023-04-01T05:03:08.084Z,19.55
2023-04-01T05:05:35.172Z,10.15
2023-04-01T05:08:02.057Z,20.25
2023-04-01T05:10:28.843Z,16.67
2023-04-01T05:12:56.040Z,12.80
2023-04-01T05:15:23.157Z,8.73
2023-04-01T05:17:50.097Z,8.80
2023-04-01T05:20:17.784Z,18.20
2023-04-01T05:22:44.606Z,12.00
2023-04-01T05:25:11.389Z,17.35
2023-04-01T05:27:38.134Z,13.50
2023-04-01T05:30:06.769Z,15.57
2023-04-01T05:32:33.512Z,17.67
2023-04-01T05:35:00.513Z,14.07
2023-04-01T05:37:27.300Z,25.40
2023-04-01T05:39:54.071Z,13.32
2023-04-01T05:42:20.982Z,16.92
2023-04-01T05:44:47.755Z,13.13
2023-04-01T05:47:14.491Z,8.07
2023-04-01T05:49:41.262Z,10.30
2023-04-01T05:52:08.260Z,12.73
2023-04-01T05:54:35.221Z,15.45
2023-04-01T05:57:01.994Z,8.05
2023-04-01T05:59:28.759Z,17.08
2023-04-01T06:01:55.475Z,19.45
2023-04-01T06:04:22.789Z,11.45
2023-04-01T06:06:49.644Z,17.17
2023-04-01T06:09:18.321Z,13.73
2023-04-01T06:12:01.602Z,10.40
2023-04-01T06:14:45.973Z,10.98
2023-04-01T06:17:30.692Z,9.23
2023-04-01T06:20:21.822Z,8.77
2023-04-01T06:23:05.944Z,8.30
2023-04-01T06:25:41.637Z,7.88
2023-04-01T06:28:48.435Z,6.93
2023-04-01T06:31:50.654Z,7.18
2023-04-01T06:34:29.188Z,7.25
2023-04-01T06:37:33.254Z,5.40
2023-04-01T06:40:05.771Z,7.85
2023-04-01T06:42:36.696Z,3.25
2023-04-01T06:45:59.062Z,2.95
2023-04-01T06:48:44.334Z,8.65
2023-04-01T06:51:32.715Z,4.53
2023-04-01T06:54:11.618Z,5.57
2023-04-01T06:56:43.111Z,5.88
2023-04-01T06:59:23.554Z,3.88
2023-04-01T07:01:58.313Z,7.88
2023-04-01T07:04:32.407Z,6.60
2023-04-01T07:07:45.688Z,6.00
2023-04-01T07:10:20.712Z,7.43
2023-04-01T07:12:52.158Z,7.60
2023-04-01T07:15:25.971Z,4.40
2023-04-01T07:18:10.773Z,9.70
2023-04-01T07:20:39.141Z,8.50
2023-04-01T07:23:12.021Z,4.25
2023-04-01T07:25:44.744Z,3.67
2023-04-01T07:28:20.076Z,5.28
2023-04-01T07:30:52.521Z,7.22
2023-04-01T07:33:44.853Z,2.40
2023-04-01T07:36:29.990Z,5.85
2023-04-01T07:39:18.873Z,5.70
2023-04-01T07:42:19.650Z,4.20
2023-04-01T07:45:05.316Z,1.27
2023-04-01T07:47:56.942Z,4.05
2023-04-01T07:50:31.299Z,3.65
2023-04-01T07:53:16.643Z,5.63
2023-04-01T07:55:58.328Z,2.40
2023-04-01T07:58:41.167Z,5.57
2023-04-01T08:01:07.879Z,4.70
2023-04-01T08:03:58.201Z,5.38
2023-04-01T08:06:34.166Z,7.65
2023-04-01T08:09:15.910Z,5.38
2023-04-01T08:12:04.361Z,5.82
2023-04-01T08:14:43.071Z,4.18
2023-04-01T08:17:32.253Z,10.00
2023-04-01T08:20:13.909Z,12.43
2023-04-01T08:22:50.099Z,12.57
2023-04-01T08:25:29.882Z,8.35
2023-04-01T08:28:22.343Z,7.72
2023-04-01T08:30:54.841Z,11.23
2023-04-01T08:33:32.842Z,8.52
2023-04-01T08:36:14.074Z,13.40
2023-04-01T08:39:08.070Z,6.88
2023-04-01T08:41:34.763Z,5.28
2023-04-01T08:44:22.674Z,4.25
2023-04-01T08:46:49.342Z,8.10
2023-04-01T08:49:25.231Z,7.28
2023-04-01T08:52:22.979Z,6.25
2023-04-01T08:55:05.455Z,10.52
2023-04-01T08:57:57.773Z,7.75
2023-04-01T09:00:33.614Z,5.97
2023-04-01T09:03:18.865Z,10.30
2023-04-01T09:06:03.728Z,8.55
2023-04-01T09:08:58.850Z,6.13
2023-04-01T09:12:06.840Z,3.85
2023-04-01T09:14:58.844Z,6.30
2023-04-01T09:17:52.418Z,3.33
2023-04-01T09:20:47.580Z,4.47
2023-04-01T09:23:52.581Z,8.43
2023-04-01T09:26:59.704Z,2.42
2023-04-01T09:29:35.468Z,4.07
2023-04-01T09:32:37.159Z,5.55
2023-04-01T09:35:22.758Z,3.70
2023-04-01T09:37:49.452Z,2.38
2023-04-01T09:40:38.573Z,4.28
2023-04-01T09:43:17.798Z,6.13
2023-04-01T09:46:21.854Z,7.20
2023-04-01T09:49:10.359Z,5.03
2023-04-01T09:52:02.523Z,10.90
2023-04-01T09:55:16.329Z,6.05
2023-04-01T09:57:48.810Z,7.72
2023-04-01T10:00:34.236Z,8.15
2023-04-01T10:03:22.726Z,9.25
2023-04-01T10:06:23.186Z,7.35
2023-04-01T10:09:01.651Z,11.13
2023-04-01T10:11:55.903Z,6.97
2023-04-01T10:14:37.572Z,6.95
2023-04-01T10:17:25.587Z,11.85
2023-04-01T10:20:16.395Z,7.85
2023-04-01T10:23:14.544Z,11.90
2023-04-01T10:26:20.793Z,4.32
2023-04-01T10:29:12.312Z,6.47
2023-04-01T10:32:15.764Z,8.23
2023-04-01T10:34:51.581Z,13.63
2023-04-01T10:37:42.576Z,8.60
2023-04-01T10:40:27.290Z,8.80
2023-04-01T10:43:25.196Z,12.40
2023-04-01T10:46:10.758Z,8.65
2023-04-01T10:49:12.089Z,5.65
2023-04-01T10:51:44.624Z,10.68
2023-04-01T10:54:25.832Z,6.88
2023-04-01T10:57:02.283Z,8.88
2023-04-01T11:00:03.258Z,12.43
2023-04-01T11:02:54.337Z,6.03
2023-04-01T11:05:42.887Z,6.90
2023-04-01T11:08:47.233Z,6.28
2023-04-01T11:11:32.334Z,4.30
2023-04-01T11:14:23.729Z,6.97
2023-04-01T11:17:08.856Z,4.10
2023-04-01T11:19:50.854Z,6.40
2023-04-01T11:22:45.821Z,6.32
2023-04-01T11:25:40.030Z,10.05
2023-04-01T11:28:12.513Z,5.72
2023-04-01T11:31:00.669Z,8.90
2023-04-01T11:33:34.718Z,10.40
2023-04-01T11:36:13.334Z,7.85
2023-04-01T11:38:52.318Z,7.03
2023-04-01T11:41:46.765Z,10.88
2023-04-01T11:44:22.568Z,6.72
2023-04-01T11:47:16.873Z,9.57
2023-04-01T11:50:07.634Z,9.60
2023-04-01T11:52:37.006Z,15.53
2023-04-01T11:55:21.250Z,11.95
2023-04-01T11:58:06.758Z,14.32
2023-04-01T12:01:12.319Z,13.68
2023-04-01T12:03:47.931Z,6.45
2023-04-01T12:06:42.107Z,8.68
2023-04-01T12:09:17.945Z,10.02
2023-04-01T12:12:09.135Z,8.63
2023-04-01T12:15:04.201Z,6.95
2023-04-01T12:17:49.752Z,6.10
2023-04-01T12:20:41.780Z,11.40
2023-04-01T12:23:22.551Z,7.10
2023-04-01T12:26:08.187Z,5.32
2023-04-01T12:28:59.486Z,8.07
2023-04-01T12:31:38.125Z,4.25
2023-04-01T12:34:44.685Z,6.97
2023-04-01T12:37:17.111Z,5.28
2023-04-01T12:40:04.446Z,5.22
2023-04-01T12:42:36.804Z,3.20
2023-04-01T12:45:15.325Z,6.90
2023-04-01T12:48:17.201Z,7.35
2023-04-01T12:51:19.505Z,9.73
2023-04-01T12:54:10.733Z,5.13
2023-04-01T12:57:10.474Z,8.55
2023-04-01T13:00:24.948Z,8.70
2023-04-01T13:03:13.025Z,5.68
2023-04-01T13:06:19.664Z,6.05
2023-04-01T13:09:18.273Z,5.80
2023-04-01T13:12:19.071Z,3.60
2023-04-01T13:15:22.477Z,8.37
2023-04-01T13:18:27.673Z,10.55
2023-04-01T13:21:20.187Z,8.93
2023-04-01T13:23:57.847Z,9.27
2023-04-01T13:26:48.917Z,11.15
2023-04-01T13:30:01.552Z,15.23
2023-04-01T13:32:43.985Z,7.35
2023-04-01T13:35:26.266Z,12.70
2023-04-01T13:38:22.823Z,3.85
2023-04-01T13:41:03.023Z,10.30
2023-04-01T13:43:41.065Z,4.47
2023-04-01T13:46:48.188Z,9.55
2023-04-01T13:49:42.055Z,4.93
2023-04-01T13:52:42.392Z,6.22
2023-04-01T13:55:26.732Z,5.47
2023-04-01T13:57:55.969Z,9.18
2023-04-01T14:00:25.992Z,4.55
2023-04-01T14:03:31.422Z,8.93
2023-04-01T14:06:20.718Z,6.80
2023-04-01T14:09:12.274Z,8.27
2023-04-01T14:14:48.606Z,4.88
2023-04-01T14:17:37.245Z,6.57
2023-04-01T14:20:27.136Z,12.00
2023-04-01T14:23:12.424Z,10.30
2023-04-01T14:26:10.150Z,4.40
2023-04-01T14:29:16.563Z,9.20
2023-04-01T14:31:48.416Z,7.35
2023-04-01T14:34:33.764Z,9.40
2023-04-01T14:37:45.221Z,17.17
2023-04-01T14:40:48.701Z,8.82
2023-04-01T14:43:34.197Z,8.30
2023-04-01T14:46:36.136Z,5.45
2023-04-01T14:49:21.273Z,8.00
2023-04-01T14:51:49.468Z,12.38
2023-04-01T14:54:24.087Z,10.93
2023-04-01T14:57:02.977Z,14.63
2023-04-01T14:59:30.681Z,12.80
2023-04-01T15:02:15.952Z,6.72
2023-04-01T15:04:54.947Z,6.60
2023-04-01T15:07:27.398Z,8.38
2023-04-01T15:10:15.147Z,6.43
2023-04-01T15:12:54.288Z,10.35
2023-04-01T15:15:48.776Z,7.05
2023-04-01T15:18:27.944Z,4.53
2023-04-01T15:21:19.375Z,5.53
2023-04-01T15:23:48.918Z,11.15
2023-04-01T15:26:31.067Z,6.90
2023-04-01T15:29:03.632Z,8.68
2023-04-01T15:31:46.488Z,15.07
2023-04-01T15:34:21.916Z,10.40
2023-04-01T15:36:54.886Z,9.73
2023-04-01T15:39:26.564Z,9.15
2023-04-01T15:42:05.165Z,13.80
2023-04-01T15:44:52.581Z,13.77
2023-04-01T15:47:25.653Z,7.45
2023-04-01T15:49:52.363Z,10.63
2023-04-01T15:52:44.883Z,3.90
2023-04-01T15:55:49.004Z,7.55
2023-04-01T15:58:28.076Z,4.90
2023-04-01T16:01:09.909Z,6.18
2023-04-01T16:04:14.209Z,7.75
2023-04-01T16:06:55.027Z,9.32
2023-04-01T16:09:27.931Z,7.85
2023-04-01T16:12:27.891Z,7.43
2023-04-01T16:15:08.152Z,7.25
2023-04-01T16:17:51.516Z,8.65
2023-04-01T16:20:27.644Z,8.82
2023-04-01T16:23:03.679Z,8.55
2023-04-01T16:26:15.751Z,8.73
2023-04-01T16:29:18.249Z,3.90
2023-04-01T16:31:51.077Z,6.57
2023-04-01T16:34:38.731Z,5.78
2023-04-01T16:37:05.701Z,6.18
2023-04-01T16:39:47.653Z,10.43
2023-04-01T16:42:45.274Z,6.55
2023-04-01T16:45:25.604Z,8.82
2023-04-01T16:47:57.460Z,5.82
2023-04-01T16:50:28.634Z,6.68
2023-04-01T16:53:14.828Z,10.23
2023-04-01T16:56:01.667Z,7.93
2023-04-01T16:58:34.640Z,11.75
2023-04-01T17:01:14.754Z,6.47
2023-04-01T17:03:50.685Z,3.85
2023-04-01T17:06:44.819Z,10.02
2023-04-01T17:09:30.341Z,8.63
2023-04-01T17:12:16.437Z,13.82
2023-04-01T17:15:29.389Z,12.35
2023-04-01T17:18:22.474Z,17.10
2023-04-01T17:21:08.802Z,30.23
2023-04-01T17:23:45.053Z,15.63
2023-04-01T17:26:48.952Z,17.42
2023-04-01T17:29:24.428Z,13.07
2023-04-01T17:32:16.759Z,17.15
2023-04-01T17:35:09.203Z,9.82
2023-04-01T17:38:01.481Z,10.85
2023-04-01T17:40:46.553Z,11.73
2023-04-01T17:43:31.294Z,18.85
2023-04-01T17:46:03.172Z,14.10
2023-04-01T17:48:38.980Z,17.73
2023-04-01T17:51:52.362Z,15.40
2023-04-01T17:54:30.941Z,11.50
2023-04-01T17:57:28.751Z,16.40
2023-04-01T18:00:13.588Z,12.70
2023-04-01T18:03:07.867Z,22.80
2023-04-01T18:05:41.064Z,17.60
2023-04-01T18:08:44.767Z,29.77
2023-04-01T18:11:29.627Z,22.65
2023-04-01T18:14:08.349Z,16.67
2023-04-01T18:17:11.255Z,14.10
2023-04-01T18:19:57.551Z,9.82
2023-04-01T18:22:45.769Z,37.85
2023-04-01T18:25:49.298Z,26.83
2023-04-01T18:28:31.425Z,19.15
2023-04-01T18:31:03.259Z,17.75
2023-04-01T18:34:10.108Z,27.08
2023-04-01T18:36:56.568Z,12.68
2023-04-01T18:39:35.366Z,12.55
2023-04-01T18:42:16.086Z,27.08
2023-04-01T18:44:57.214Z,9.38
2023-04-01T18:47:45.396Z,16.42
2023-04-01T18:50:49.347Z,10.10
2023-04-01T18:53:54.897Z,9.27
2023-04-01T18:56:33.487Z,10.25
2023-04-01T18:59:06.557Z,13.65
2023-04-01T19:01:48.727Z,17.63
2023-04-01T19:04:43.314Z,24.00
2023-04-01T19:07:35.446Z,24.25
2023-04-01T19:10:13.512Z,43.15
2023-04-01T19:12:49.162Z,25.83
2023-04-01T19:15:23.061Z,19.48
2023-04-01T19:18:17.745Z,12.75
2023-04-01T19:20:58.631Z,15.75
2023-04-01T19:23:52.088Z,10.55
2023-04-01T19:26:29.214Z,8.15
2023-04-01T19:29:24.023Z,12.00
2023-04-01T19:32:31.866Z,8.25
2023-04-01T19:35:18.613Z,11.18
2023-04-01T19:38:11.465Z,13.82
2023-04-01T19:40:49.393Z,11.63
2023-04-01T19:43:41.676Z,14.90
2023-04-01T19:46:33.874Z,17.13
2023-04-01T19:49:06.422Z,9.45
2023-04-01T19:51:53.809Z,17.73
2023-04-01T19:54:29.734Z,17.55
2023-04-01T19:57:18.377Z,12.40
2023-04-01T19:59:57.126Z,15.07
2023-04-01T20:02:42.443Z,18.80
2023-04-01T20:05:23.068Z,13.68
2023-04-01T20:07:55.763Z,15.13
2023-04-01T20:10:26.485Z,19.90
2023-04-01T20:13:15.027Z,16.50
2023-04-01T20:15:46.656Z,12.00
2023-04-01T20:18:24.362Z,11.50
2023-04-01T20:21:03.181Z,10.40
2023-04-01T20:23:42.042Z,15.93
2023-04-01T20:26:12.415Z,10.15
2023-04-01T20:29:01.535Z,9.87
2023-04-01T20:31:31.279Z,14.77
2023-04-01T20:34:04.026Z,7.97
2023-04-01T20:37:06.350Z,13.00
2023-04-01T20:39:53.766Z,11.27
2023-04-01T20:42:23.611Z,9.45
2023-04-01T20:45:27.516Z,6.82
2023-04-01T20:48:03.379Z,16.02
2023-04-01T20:50:40.805Z,17.52
2023-04-01T20:53:21.228Z,17.23
2023-04-01T20:55:47.933Z,18.17
2023-04-01T20:58:30.654Z,12.35
2023-04-01T21:01:14.490Z,12.02
2023-04-01T21:04:15.856Z,24.75
2023-04-01T21:06:54.721Z,19.00
2023-04-01T21:09:39.652Z,10.40
2023-04-01T21:12:34.277Z,9.48
2023-04-01T21:15:20.291Z,14.10
2023-04-01T21:18:13.605Z,11.32
2023-04-01T21:20:57.985Z,7.78
2023-04-01T21:23:59.411Z,8.30
2023-04-01T21:27:00.390Z,9.30
2023-04-01T21:29:36.222Z,10.98
2023-04-01T21:32:25.814Z,16.67
2023-04-01T21:35:07.672Z,13.30
2023-04-01T21:37:37.253Z,11.88
2023-04-01T21:40:40.010Z,15.95
2023-04-01T21:43:15.662Z,14.10
2023-04-01T21:46:20.596Z,13.93
2023-04-01T21:49:25.768Z,12.55
2023-04-01T21:52:28.040Z,13.35
2023-04-01T21:55:17.998Z,15.05
2023-04-01T21:58:12.250Z,14.60
2023-04-01T22:00:53.787Z,11.38
2023-04-01T22:03:55.912Z,10.82
2023-04-01T22:06:49.018Z,10.07
2023-04-01T22:09:40.269Z,13.18
2023-04-01T22:12:16.096Z,7.57
2023-04-01T22:15:06.920Z,9.15
2023-04-01T22:17:47.683Z,9.70
2023-04-01T22:20:51.292Z,7.57
2023-04-01T22:23:22.075Z,5.97
2023-04-01T22:26:28.606Z,10.20
2023-04-01T22:29:13.793Z,5.97
2023-04-01T22:31:49.161Z,7.38
2023-04-01T22:34:32.196Z,10.63
2023-04-01T22:37:10.784Z,11.88
2023-04-01T22:39:52.562Z,10.25
2023-04-01T22:42:42.976Z,11.10
2023-04-01T22:45:48.020Z,7.82
2023-04-01T22:48:34.103Z,11.45
2023-04-01T22:51:28.456Z,7.80
2023-04-01T22:54:14.437Z,11.05
2023-04-01T22:57:16.558Z,11.52
2023-04-01T22:59:49.814Z,8.18
2023-04-01T23:02:31.149Z,11.70
2023-04-01T23:05:01.593Z,10.90
2023-04-01T23:08:20.417Z,8.80
2023-04-01T23:10:55.917Z,10.10
2023-04-01T23:13:33.226Z,11.10
2023-04-01T23:16:00.661Z,9.57
2023-04-01T23:18:37.494Z,8.85
2023-04-01T23:21:22.520Z,8.73
2023-04-01T23:24:07.692Z,7.63
2023-04-01T23:26:37.381Z,4.82
2023-04-01T23:29:07.098Z,7.25
2023-04-01T23:31:39.656Z,7.07
2023-04-01T23:34:12.434Z,7.38
2023-04-01T23:36:40.871Z,9.35
2023-04-01T23:39:23.944Z,10.02
2023-04-01T23:41:54.183Z,9.57
2023-04-01T23:44:21.770Z,5.50
2023-04-01T23:46:50.430Z,11.43
2023-04-01T23:49:26.951Z,6.85
2023-04-01T23:51:57.913Z,9.07
2023-04-01T23:54:41.039Z,14.23
2023-04-01T23:57:14.845Z,11.63
2023-04-01T23:59:41.702Z,10.88
